Time;durP1;ratioP1;P1;durP2;ratioP2;P2;SDS_P1;SDS_P2;PMS_P1;PMS_P2;Temp;Humidity;BMP_temperature;BMP_pressure;BME280_temperature;BME280_humidity;BME280_pressure;Samples;Min_cycle;Max_cycle;Signal;HPM_P1;HPM_P2
2022/10/17 00:00:53;;;;;;;39.85;24.18;;;;;;;4.92;89.07;95859.78;1728725;83;21017;-51
2022/10/17 00:03:20;;;;;;;40.65;22.87;;;;;;;4.88;88.96;95859.80;1728737;82;21297;-50
2022/10/17 00:05:48;;;;;;;35.25;22.35;;;;;;;4.83;88.87;95861.50;1728696;83;20930;-51
2022/10/17 00:08:17;;;;;;;35.38;20.95;;;;;;;4.83;88.93;95864.83;1699764;83;21013;-50
2022/10/17 00:10:44;;;;;;;33.63;21.52;;;;;;;4.86;89.14;95858.03;1728954;83;21013;-51
2022/10/17 00:13:12;;;;;;;39.78;23.25;;;;;;;4.84;89.03;95861.73;1728698;83;21512;-50
2022/10/17 00:15:43;;;;;;;37.42;22.15;;;;;;;4.78;88.88;95869.29;1700361;83;21013;-51
2022/10/17 00:18:12;;;;;;;36.95;21.15;;;;;;;4.73;89.19;95864.98;1728884;82;20994;-51
2022/10/17 00:20:38;;;;;;;33.00;20.17;;;;;;;4.76;89.50;95879.20;1728772;83;20966;-50
2022/10/17 00:23:06;;;;;;;30.95;20.35;;;;;;;4.84;89.57;95881.38;1728729;83;21485;-50
2022/10/17 00:25:35;;;;;;;29.07;17.48;;;;;;;4.86;89.26;95883.14;1728698;83;20986;-51
2022/10/17 00:28:02;;;;;;;31.77;19.67;;;;;;;4.85;89.17;95881.02;1729020;83;21243;-51
2022/10/17 00:30:31;;;;;;;34.05;20.90;;;;;;;4.85;89.12;95879.65;1728673;83;20976;-52
2022/10/17 00:32:58;;;;;;;31.50;21.42;;;;;;;4.88;89.23;95878.88;1728924;83;21403;-51
2022/10/17 00:35:26;;;;;;;32.95;20.43;;;;;;;4.92;89.01;95877.51;1728595;83;21446;-51
2022/10/17 00:37:53;;;;;;;41.48;20.92;;;;;;;4.89;88.72;95879.64;1728773;83;20938;-50
2022/10/17 00:40:19;;;;;;;37.53;21.73;;;;;;;4.88;88.38;95875.36;1728721;83;21247;-51
2022/10/17 00:42:46;;;;;;;33.35;22.20;;;;;;;4.84;88.39;95869.91;1699918;83;21207;-51
2022/10/17 00:45:26;;;;;;;40.05;25.82;;;;;;;4.86;88.57;95872.23;1728754;83;20990;-50
2022/10/17 00:48:00;;;;;;;43.42;24.20;;;;;;;4.80;88.31;95865.00;1728637;83;20997;-51
2022/10/17 00:50:26;;;;;;;43.65;22.40;;;;;;;4.78;88.42;95867.92;1728859;82;20942;-51
2022/10/17 00:52:53;;;;;;;46.00;21.20;;;;;;;4.76;88.24;95871.02;1700029;83;21150;-51
2022/10/17 00:55:28;;;;;;;35.90;20.60;;;;;;;4.76;88.17;95871.63;1728690;83;21013;-50
2022/10/17 00:57:56;;;;;;;31.48;20.02;;;;;;;4.75;87.91;95876.27;1701333;83;21462;-51
2022/10/17 01:00:23;;;;;;;45.67;20.65;;;;;;;4.72;88.03;95875.69;1731531;82;21525;-50
2022/10/17 01:02:50;;;;;;;38.42;21.37;;;;;;;4.73;88.08;95876.45;1707069;82;20997;-51
2022/10/17 01:05:19;;;;;;;34.98;19.85;;;;;;;4.73;88.02;95879.97;1707102;82;21455;-51
2022/10/17 01:07:48;;;;;;;46.20;20.88;;;;;;;4.74;88.08;95873.35;1731865;82;21434;-51
2022/10/17 01:10:17;;;;;;;36.75;21.23;;;;;;;4.71;87.78;95874.12;1731755;82;20978;-51
2022/10/17 01:13:13;;;;;;;38.88;21.17;;;;;;;4.64;87.57;95874.66;1731784;82;20954;-52
2022/10/17 01:16:27;;;;;;;43.15;22.55;;;;;;;4.57;87.52;95879.49;1731772;82;21021;-51
2022/10/17 01:19:33;;;;;;;30.80;19.23;;;;;;;4.52;87.75;95873.61;1731864;82;21293;-52
2022/10/17 01:22:09;;;;;;;39.80;20.75;;;;;;;4.52;88.04;95873.05;1731817;82;21033;-51
2022/10/17 01:25:01;;;;;;;38.92;21.25;;;;;;;4.52;88.14;95879.06;1731800;82;21013;-51
2022/10/17 01:28:11;;;;;;;49.70;23.15;;;;;;;4.51;88.01;95876.94;1731713;82;21013;-51
2022/10/17 01:31:05;;;;;;;33.65;19.95;;;;;;;4.43;87.77;95878.05;1644654;86;21154;-50
2022/10/17 01:33:55;;;;;;;40.00;21.27;;;;;;;4.37;87.97;95885.02;1755896;81;21310;-51
2022/10/17 01:36:51;;;;;;;35.25;20.57;;;;;;;4.36;88.06;95891.63;1731830;83;20989;-51
2022/10/17 01:39:53;;;;;;;53.17;25.52;;;;;;;4.33;88.24;95889.67;1729630;83;20969;-51
2022/10/17 01:42:32;;;;;;;37.65;18.60;;;;;;;4.31;88.19;95894.72;1731938;82;21540;-51
2022/10/17 01:45:07;;;;;;;24.57;17.30;;;;;;;4.25;88.05;95893.48;1731907;83;20966;-51
2022/10/17 01:47:34;;;;;;;28.52;18.00;;;;;;;4.19;88.20;95899.09;1732033;82;21769;-50
2022/10/17 01:50:24;;;;;;;31.85;19.37;;;;;;;4.17;88.52;95900.63;1731777;83;21004;-50
2022/10/17 01:52:55;;;;;;;27.62;19.50;;;;;;;4.16;88.60;95901.78;1732202;82;21398;-51
2022/10/17 01:55:35;;;;;;;32.50;20.17;;;;;;;4.12;88.69;95903.14;1731921;82;21489;-52
2022/10/17 01:58:09;;;;;;;27.27;16.65;;;;;;;4.09;88.95;95899.78;1732184;82;21517;-51
2022/10/17 02:00:36;;;;;;;24.55;16.00;;;;;;;4.13;89.10;95897.89;1701293;83;22196;-51
2022/10/17 02:03:06;;;;;;;32.70;17.45;;;;;;;4.09;88.71;95898.42;1700412;83;20993;-51
2022/10/17 02:05:37;;;;;;;27.80;16.25;;;;;;;3.96;88.60;95898.53;1728797;83;21002;-51
2022/10/17 02:08:05;;;;;;;27.65;15.43;;;;;;;3.91;88.91;95894.02;1728771;82;20998;-50
2022/10/17 02:10:44;;;;;;;29.48;18.62;;;;;;;3.88;89.10;95894.17;1728869;82;21045;-50
2022/10/17 02:13:22;;;;;;;30.88;16.17;;;;;;;3.85;89.22;95903.09;1728879;82;21888;-52
2022/10/17 02:16:07;;;;;;;21.25;14.45;;;;;;;3.84;89.43;95902.89;1728727;82;21037;-54
2022/10/17 02:18:57;;;;;;;22.22;13.85;;;;;;;3.83;89.52;95898.61;1728968;83;21006;-51
2022/10/17 02:21:48;;;;;;;27.00;15.83;;;;;;;3.84;89.47;95904.84;1728609;83;20987;-51
2022/10/17 02:24:39;;;;;;;29.23;15.35;;;;;;;3.80;89.53;95898.00;1728895;83;20946;-51
2022/10/17 02:27:28;;;;;;;28.57;17.57;;;;;;;3.82;89.79;95910.66;1728861;83;21211;-53
2022/10/17 02:30:15;;;;;;;43.58;23.20;;;;;;;3.81;89.79;95914.53;1728781;82;20981;-53
2022/10/17 02:32:55;;;;;;;128.57;58.25;;;;;;;3.81;89.96;95906.38;1728853;83;21005;-51
2022/10/17 02:35:22;;;;;;;155.27;67.97;;;;;;;3.85;89.86;95913.98;1728894;83;21504;-51
2022/10/17 02:37:48;;;;;;;127.58;60.17;;;;;;;3.90;89.83;95906.06;1728840;83;20957;-51
2022/10/17 02:40:18;;;;;;;125.15;59.77;;;;;;;3.96;89.92;95918.95;1728815;83;20993;-50
2022/10/17 02:42:45;;;;;;;103.17;49.50;;;;;;;4.03;90.13;95910.83;1699783;82;21176;-50
2022/10/17 02:45:13;;;;;;;69.72;37.23;;;;;;;4.12;90.15;95913.23;1729027;82;21569;-51
2022/10/17 02:47:51;;;;;;;58.10;33.20;;;;;;;4.18;89.86;95913.88;1700108;83;21049;-52
2022/10/17 02:50:20;;;;;;;37.88;21.48;;;;;;;4.19;89.43;95918.16;1728796;83;20974;-51
2022/10/17 02:52:57;;;;;;;32.15;18.73;;;;;;;4.16;88.86;95916.77;1728663;82;21851;-51
2022/10/17 02:55:31;;;;;;;33.90;20.72;;;;;;;4.09;88.64;95918.84;1729042;83;21450;-51
2022/10/17 02:58:02;;;;;;;33.80;21.27;;;;;;;4.08;88.79;95924.09;1729036;83;21375;-51
2022/10/17 03:00:29;;;;;;;29.48;19.45;;;;;;;4.06;88.77;95925.05;1699879;83;21457;-51
2022/10/17 03:02:56;;;;;;;32.88;20.35;;;;;;;4.02;88.53;95917.44;1728710;83;21469;-52
2022/10/17 03:05:26;;;;;;;27.93;18.10;;;;;;;3.97;88.63;95928.68;1728938;83;21473;-51
2022/10/17 03:07:53;;;;;;;28.27;18.98;;;;;;;3.99;88.77;95930.45;1728671;83;20954;-50
2022/10/17 03:10:20;;;;;;;42.17;22.77;;;;;;;3.99;88.42;95933.16;1728702;83;21089;-51
2022/10/17 03:12:48;;;;;;;61.60;31.35;;;;;;;3.95;88.37;95931.00;1728751;83;20970;-50
2022/10/17 03:15:15;;;;;;;67.62;33.90;;;;;;;3.91;88.29;95930.76;1728733;83;21011;-51
2022/10/17 03:17:43;;;;;;;52.58;27.22;;;;;;;3.87;88.29;95933.44;1728750;83;21264;-51
2022/10/17 03:20:11;;;;;;;41.68;21.60;;;;;;;3.90;88.67;95928.59;1700170;83;21057;-51
2022/10/17 03:22:38;;;;;;;38.53;20.05;;;;;;;3.90;88.61;95936.77;1729137;83;21009;-52
2022/10/17 03:25:07;;;;;;;32.88;18.10;;;;;;;3.89;88.42;95936.56;1728726;83;21006;-51
2022/10/17 03:27:34;;;;;;;36.60;19.07;;;;;;;3.89;88.27;95937.16;1728845;83;21001;-52
2022/10/17 03:30:01;;;;;;;38.80;21.48;;;;;;;3.87;88.18;95936.75;1728977;82;21557;-51
2022/10/17 03:32:29;;;;;;;46.20;25.37;;;;;;;3.88;88.37;95944.53;1700131;83;21018;-51
2022/10/17 03:34:56;;;;;;;77.03;36.00;;;;;;;3.89;88.36;95940.65;1700141;83;21133;-53
2022/10/17 03:37:23;;;;;;;118.85;46.45;;;;;;;3.92;88.38;95944.01;1728708;83;21025;-52
2022/10/17 03:39:50;;;;;;;115.77;44.83;;;;;;;3.97;88.24;95954.54;1728719;83;21040;-51
2022/10/17 03:42:18;;;;;;;94.37;43.92;;;;;;;3.95;87.91;95948.70;1728801;82;21310;-51
2022/10/17 03:44:44;;;;;;;73.15;36.55;;;;;;;4.00;88.06;95949.70;1728885;82;21466;-55
2022/10/17 03:47:11;;;;;;;70.95;38.33;;;;;;;4.06;88.02;95952.27;1728650;82;21057;-52
2022/10/17 03:49:39;;;;;;;57.33;34.33;;;;;;;4.10;87.77;95955.03;1728788;83;21061;-50
2022/10/17 03:52:11;;;;;;;64.03;33.05;;;;;;;4.11;87.48;95960.13;1728694;83;20970;-50
2022/10/17 03:54:38;;;;;;;73.47;35.23;;;;;;;4.12;87.33;95956.23;1701956;83;21264;-53
2022/10/17 03:57:05;;;;;;;34.15;19.90;;;;;;;4.11;86.99;95956.03;1728617;82;21173;-51
2022/10/17 03:59:33;;;;;;;38.83;17.67;;;;;;;4.08;86.98;95956.77;1728525;82;21128;-51
2022/10/17 04:02:02;;;;;;;32.83;17.92;;;;;;;4.04;86.60;95958.67;1728314;83;21010;-52
2022/10/17 04:04:29;;;;;;;37.67;19.50;;;;;;;3.92;86.64;95955.45;1728863;83;20969;-50
2022/10/17 04:06:55;;;;;;;30.72;17.32;;;;;;;3.83;86.69;95957.72;1728657;83;21278;-53
2022/10/17 04:09:22;;;;;;;49.77;20.50;;;;;;;3.76;86.91;95952.98;1699973;83;21061;-53
2022/10/17 04:11:53;;;;;;;34.40;18.15;;;;;;;3.72;86.93;95955.46;1700894;83;21009;-51
2022/10/17 04:14:20;;;;;;;31.90;17.35;;;;;;;3.69;87.05;95954.85;1676245;83;21388;-52
2022/10/17 04:16:49;;;;;;;53.02;23.15;;;;;;;3.68;87.10;95958.73;1700398;83;20993;-52
2022/10/17 04:19:17;;;;;;;115.35;27.65;;;;;;;3.68;87.02;95959.50;1728618;82;21149;-54
2022/10/17 04:21:46;;;;;;;85.67;32.08;;;;;;;3.65;87.06;95956.17;1728626;83;20966;-54
2022/10/17 04:24:13;;;;;;;70.32;32.48;;;;;;;3.64;87.17;95957.33;1728879;83;21493;-54
2022/10/17 04:26:55;;;;;;;56.88;28.30;;;;;;;3.62;87.36;95956.92;1668399;83;21093;-55
2022/10/17 04:29:25;;;;;;;53.98;23.60;;;;;;;3.67;87.77;95956.58;1712223;83;21100;-55
2022/10/17 04:31:55;;;;;;;44.53;21.45;;;;;;;3.70;87.59;95964.58;1721974;82;21244;-51
2022/10/17 04:34:24;;;;;;;57.78;25.62;;;;;;;3.73;87.77;95959.16;1720749;83;21040;-51
2022/10/17 04:36:51;;;;;;;71.90;32.98;;;;;;;3.79;87.69;95957.67;1721159;82;21009;-50
2022/10/17 04:39:18;;;;;;;66.05;33.30;;;;;;;3.86;87.63;95963.17;1697131;83;21002;-50
2022/10/17 04:41:45;;;;;;;43.25;24.10;;;;;;;3.93;87.55;95963.27;1721585;83;21061;-51
2022/10/17 04:44:13;;;;;;;55.73;22.98;;;;;;;3.93;87.07;95971.43;1697154;83;21245;-50
2022/10/17 04:46:41;;;;;;;48.87;24.40;;;;;;;3.91;87.08;95975.08;1638372;86;21078;-52
2022/10/17 04:49:08;;;;;;;54.13;22.82;;;;;;;3.89;86.84;95980.12;1662805;86;20966;-51
2022/10/17 04:51:37;;;;;;;45.83;21.52;;;;;;;3.89;86.79;95976.03;1703093;83;21453;-51
2022/10/17 04:54:11;;;;;;;54.18;25.72;;;;;;;3.93;87.12;95973.35;1704938;83;20965;-51
2022/10/17 04:56:40;;;;;;;55.88;27.82;;;;;;;3.99;87.05;95980.81;1729885;83;21942;-50
2022/10/17 04:59:09;;;;;;;74.65;34.80;;;;;;;4.05;87.00;95976.58;1729910;82;20944;-50
2022/10/17 05:01:36;;;;;;;81.92;40.10;;;;;;;4.10;86.53;95974.89;1713744;83;21007;-51
2022/10/17 05:04:04;;;;;;;108.30;54.08;;;;;;;4.16;87.01;95981.55;1711660;83;21068;-50
2022/10/17 05:06:32;;;;;;;63.17;29.98;;;;;;;4.28;86.63;95980.48;1711581;83;21047;-50
2022/10/17 05:09:07;;;;;;;63.40;31.37;;;;;;;4.34;86.16;95987.13;1706700;83;21171;-49
2022/10/17 05:11:34;;;;;;;48.85;27.58;;;;;;;4.36;85.66;95986.17;1673905;85;20998;-50
2022/10/17 05:14:02;;;;;;;45.08;24.60;;;;;;;4.39;85.60;95988.17;1690428;85;21082;-50
2022/10/17 05:16:31;;;;;;;58.38;27.15;;;;;;;4.33;85.05;95995.91;1690314;85;21003;-50
2022/10/17 05:19:00;;;;;;;67.35;26.85;;;;;;;4.20;85.00;95992.48;1683214;83;21314;-51
2022/10/17 05:21:31;;;;;;;91.20;28.65;;;;;;;4.17;85.57;96000.81;1641851;83;21047;-51
2022/10/17 05:23:57;;;;;;;121.97;32.03;;;;;;;4.24;85.58;95998.14;1689579;83;21047;-52
2022/10/17 05:26:24;;;;;;;74.60;33.48;;;;;;;4.22;85.34;96001.06;1688764;83;21063;-55
2022/10/17 05:28:51;;;;;;;110.10;37.08;;;;;;;4.26;85.89;96002.62;1671101;83;21444;-50
2022/10/17 05:31:19;;;;;;;97.30;38.78;;;;;;;4.40;86.11;95991.86;1690219;83;21659;-50
2022/10/17 05:33:48;;;;;;;103.62;42.55;;;;;;;4.55;85.93;95994.11;1690973;83;21595;-53
2022/10/17 05:36:16;;;;;;;107.80;45.52;;;;;;;4.68;85.60;95997.54;1691163;83;21428;-51
2022/10/17 05:38:43;;;;;;;104.27;40.48;;;;;;;4.74;85.30;95997.38;1690994;83;21039;-56
2022/10/17 05:41:10;;;;;;;88.95;36.58;;;;;;;4.79;85.11;95996.24;1687506;83;21051;-52
2022/10/17 05:43:37;;;;;;;90.97;36.45;;;;;;;4.85;84.99;95998.23;1689088;83;21043;-51
2022/10/17 05:46:08;;;;;;;85.55;35.40;;;;;;;4.86;84.65;95999.80;1669517;83;21091;-52
2022/10/17 05:48:36;;;;;;;81.67;40.30;;;;;;;4.85;84.54;96001.53;1690755;83;21003;-52
2022/10/17 05:51:06;;;;;;;84.85;42.67;;;;;;;4.84;84.92;96006.78;1688931;83;21112;-51
2022/10/17 05:53:38;;;;;;;91.82;40.63;;;;;;;4.93;85.18;96005.28;1692026;83;21007;-53
2022/10/17 05:56:08;;;;;;;;;;;;;;;5.04;85.03;96023.08;1693109;83;21468;-53
2022/10/17 05:58:35;;;;;;;72.58;34.23;;;;;;;5.12;85.00;96017.88;1687309;83;21400;-54
2022/10/17 06:01:05;;;;;;;110.95;41.18;;;;;;;5.15;85.00;96026.66;1694980;82;21027;-51
2022/10/17 06:03:32;;;;;;;93.97;39.25;;;;;;;5.15;84.79;96032.12;1707363;82;21027;-53
2022/10/17 06:06:11;;;;;;;98.37;43.25;;;;;;;5.16;84.74;96032.31;1686717;82;21079;-54
2022/10/17 06:08:41;;;;;;;103.20;48.45;;;;;;;5.15;84.71;96042.43;1707655;82;21166;-56
2022/10/17 06:11:11;;;;;;;79.15;40.25;;;;;;;5.14;84.97;96036.01;1701968;82;21594;-54
2022/10/17 06:13:40;;;;;;;78.07;40.33;;;;;;;5.28;85.73;96043.69;1687418;82;21022;-55
2022/10/17 06:16:09;;;;;;;58.75;37.23;;;;;;;5.36;85.37;96035.72;1700756;82;21065;-56
2022/10/17 06:18:39;;;;;;;72.25;39.00;;;;;;;5.43;85.15;96039.88;1709766;82;21018;-55
2022/10/17 06:21:09;;;;;;;58.20;36.53;;;;;;;5.50;85.53;96043.42;1715150;82;21055;-56
2022/10/17 06:23:38;;;;;;;56.68;33.67;;;;;;;5.65;85.46;96045.05;1710122;82;21287;-55
2022/10/17 06:26:10;;;;;;;68.28;41.08;;;;;;;5.72;85.45;96047.00;1706052;82;21117;-57
2022/10/17 06:28:39;;;;;;;58.55;32.13;;;;;;;5.84;85.75;96058.41;1706442;82;21040;-53
2022/10/17 06:31:09;;;;;;;65.28;33.50;;;;;;;5.95;85.69;96053.75;1667008;82;21100;-55
2022/10/17 06:33:36;;;;;;;70.10;32.98;;;;;;;6.05;85.57;96061.78;1704242;82;20985;-55
2022/10/17 06:36:05;;;;;;;54.00;30.48;;;;;;;6.16;85.51;96063.97;1703077;82;22343;-55
2022/10/17 06:38:33;;;;;;;36.60;23.70;;;;;;;6.26;85.65;96063.20;1680581;82;21063;-54
2022/10/17 06:41:09;;;;;;;57.25;26.10;;;;;;;6.37;85.76;96069.48;1679275;82;21130;-54
2022/10/17 06:43:37;;;;;;;42.75;24.90;;;;;;;6.51;85.94;96063.44;1702133;82;21037;-56
2022/10/17 06:46:19;;;;;;;56.20;29.02;;;;;;;6.66;85.75;96060.16;1631398;82;21090;-56
2022/10/17 06:48:58;;;;;;;40.25;23.75;;;;;;;6.84;85.77;96062.28;1705532;81;21273;-58
2022/10/17 06:51:27;;;;;;;26.00;19.10;;;;;;;7.02;85.48;96064.42;1691417;82;21542;-58
2022/10/17 06:53:57;;;;;;;26.20;19.42;;;;;;;7.23;85.49;96068.72;1705021;82;21005;-55
2022/10/17 06:56:37;;;;;;;35.92;22.30;;;;;;;7.43;85.19;96073.97;1699117;82;21405;-54
2022/10/17 06:59:10;;;;;;;25.45;17.92;;;;;;;7.66;85.17;96071.55;1654816;82;21091;-54
2022/10/17 07:01:40;;;;;;;25.27;17.30;;;;;;;7.82;84.53;96080.11;1699818;82;21354;-55
2022/10/17 07:04:09;;;;;;;26.70;15.32;;;;;;;7.96;84.25;96075.95;1701246;83;20954;-56
2022/10/17 07:06:37;;;;;;;22.45;13.83;;;;;;;8.12;83.81;96080.39;1702132;83;20983;-56
2022/10/17 07:09:08;;;;;;;20.77;12.68;;;;;;;8.37;83.38;96079.69;1701107;82;21076;-57
2022/10/17 07:11:39;;;;;;;25.08;13.03;;;;;;;8.65;82.79;96076.76;1685198;83;21058;-55
2022/10/17 07:14:06;;;;;;;36.60;17.27;;;;;;;8.94;82.08;96069.89;1697206;83;21127;-55
2022/10/17 07:16:33;;;;;;;40.60;19.48;;;;;;;9.15;81.04;96066.97;1698108;83;21211;-56
2022/10/17 07:19:08;;;;;;;43.45;19.00;;;;;;;9.35;80.76;96070.70;1701034;83;21020;-57
2022/10/17 07:21:37;;;;;;;50.55;19.80;;;;;;;9.63;80.27;96059.44;1698313;83;21145;-57
2022/10/17 07:24:06;;;;;;;42.53;19.55;;;;;;;9.87;79.32;96058.38;1688709;83;21545;-56
2022/10/17 07:26:35;;;;;;;26.23;18.02;;;;;;;10.10;78.52;96065.39;1702672;82;21557;-59
2022/10/17 07:29:02;;;;;;;27.20;16.85;;;;;;;10.30;78.20;96063.55;1684446;83;21501;-54
2022/10/17 07:31:31;;;;;;;37.00;18.15;;;;;;;10.47;77.42;96061.16;1699041;83;21071;-58
2022/10/17 07:34:01;;;;;;;30.17;15.45;;;;;;;10.66;76.96;96057.74;1694464;83;21147;-57
2022/10/17 07:36:28;;;;;;;20.23;12.50;;;;;;;10.79;76.67;96056.77;1708343;83;21055;-58
2022/10/17 07:38:57;;;;;;;19.42;11.45;;;;;;;10.84;76.46;96054.31;1705588;82;22284;-58
2022/10/17 07:41:25;;;;;;;18.82;12.78;;;;;;;10.89;75.73;96053.86;1691873;83;21452;-56
2022/10/17 07:43:53;;;;;;;28.83;14.35;;;;;;;10.91;75.40;96052.84;1696134;83;21417;-61
2022/10/17 07:46:22;;;;;;;21.12;13.03;;;;;;;10.92;74.98;96053.02;1696234;83;21346;-56
2022/10/17 07:48:49;;;;;;;16.00;11.60;;;;;;;10.98;74.77;96057.46;1684224;83;20997;-56
2022/10/17 07:51:19;;;;;;;23.75;11.57;;;;;;;11.10;74.00;96055.47;1686500;83;21173;-55
2022/10/17 07:53:45;;;;;;;21.50;13.93;;;;;;;11.26;73.36;96052.84;1713736;82;21020;-57
2022/10/17 07:56:13;;;;;;;22.70;13.83;;;;;;;11.40;72.96;96050.64;1693360;83;21079;-62
2022/10/17 07:58:41;;;;;;;27.17;13.60;;;;;;;11.54;72.38;96053.13;1696722;83;21340;-57
2022/10/17 08:01:13;;;;;;;33.67;13.53;;;;;;;11.66;71.93;96055.30;1689320;83;21464;-58
2022/10/17 08:03:39;;;;;;;19.20;11.43;;;;;;;11.77;72.08;96057.27;1627493;85;21135;-57
2022/10/17 08:06:06;;;;;;;21.33;11.95;;;;;;;11.97;71.88;96044.86;1707027;82;21116;-56
2022/10/17 08:08:35;;;;;;;15.98;10.72;;;;;;;12.18;71.46;96045.22;1673217;83;21135;-55
2022/10/17 08:11:07;;;;;;;20.55;11.20;;;;;;;12.38;71.02;96045.97;1681308;83;21104;-58
2022/10/17 08:13:36;;;;;;;;;;;;;;;12.59;70.47;96041.36;1681319;83;21716;-54
2022/10/17 08:16:06;;;;;;;24.27;12.07;;;;;;;12.76;70.06;96040.18;1653367;84;21079;-54
2022/10/17 08:18:34;;;;;;;26.95;10.98;;;;;;;12.97;69.67;96032.80;1673030;83;21015;-58
2022/10/17 08:21:07;;;;;;;14.93;9.73;;;;;;;13.20;69.42;96034.80;1655978;83;21023;-57
2022/10/17 08:23:34;;;;;;;17.27;9.35;;;;;;;13.42;68.92;96035.05;1677296;83;21058;-57
2022/10/17 08:26:03;;;;;;;32.45;11.40;;;;;;;13.58;68.17;96031.64;1673497;83;21166;-55
2022/10/17 08:28:30;;;;;;;16.77;10.05;;;;;;;13.72;67.38;96027.71;1678850;83;21214;-55
2022/10/17 08:31:10;;;;;;;18.52;9.30;;;;;;;13.89;66.31;96027.84;1691394;83;21030;-56
2022/10/17 08:33:38;;;;;;;15.08;9.93;;;;;;;14.00;65.22;96033.87;1682452;83;22612;-54
2022/10/17 08:36:06;;;;;;;13.58;8.23;;;;;;;14.08;64.56;96029.08;1653980;84;21095;-59
2022/10/17 08:38:35;;;;;;;22.90;9.50;;;;;;;14.24;63.90;96028.25;1699225;82;21026;-57
2022/10/17 08:41:06;;;;;;;14.80;8.80;;;;;;;14.37;63.56;96028.44;1671312;83;21081;-57
2022/10/17 08:44:01;;;;;;;13.32;7.95;;;;;;;14.53;63.13;96027.77;1675951;83;21011;-56
2022/10/17 08:46:31;;;;;;;15.68;7.62;;;;;;;14.76;62.65;96033.58;1662987;85;21508;-55
2022/10/17 08:48:58;;;;;;;10.58;6.67;;;;;;;14.91;61.51;96033.31;1679179;83;21478;-56
2022/10/17 08:51:33;;;;;;;12.58;6.97;;;;;;;15.01;61.02;96031.59;1662853;83;21392;-57
2022/10/17 08:54:23;;;;;;;26.27;10.55;;;;;;;15.18;60.96;96025.33;1666103;83;21129;-55
2022/10/17 08:56:52;;;;;;;23.50;8.50;;;;;;;15.39;60.23;96025.41;1690385;83;21045;-59
2022/10/17 08:59:29;;;;;;;14.73;7.67;;;;;;;15.63;59.52;96025.80;1663325;84;21004;-55
2022/10/17 09:02:42;;;;;;;12.13;6.80;;;;;;;15.81;58.72;96025.36;1669447;82;21115;-57
2022/10/17 09:05:44;;;;;;;14.35;7.08;;;;;;;15.98;58.25;96021.19;1712846;82;21813;-55
2022/10/17 09:08:19;;;;;;;17.30;7.42;;;;;;;16.18;57.62;96025.80;1713182;82;21231;-55
2022/10/17 09:11:21;;;;;;;14.20;6.72;;;;;;;16.43;57.53;96015.95;1710557;82;21574;-57
2022/10/17 09:14:18;;;;;;;10.48;6.97;;;;;;;16.68;56.97;96019.95;1717555;81;20995;-58
2022/10/17 09:17:11;;;;;;;12.23;7.17;;;;;;;16.93;56.48;96012.82;1698866;81;21566;-59
2022/10/17 09:19:54;;;;;;;17.25;8.90;;;;;;;17.26;55.84;96011.84;1711100;82;21009;-56
2022/10/17 09:22:24;;;;;;;10.17;6.97;;;;;;;17.60;55.38;96013.63;1711217;82;21251;-59
2022/10/17 09:25:02;;;;;;;15.20;7.72;;;;;;;17.92;54.86;96005.48;1711973;82;21098;-55
2022/10/17 09:27:55;;;;;;;11.68;7.90;;;;;;;18.27;53.88;96004.70;1682108;82;21036;-57
2022/10/17 09:30:46;;;;;;;13.98;8.85;;;;;;;18.70;52.66;96002.93;1696328;82;21085;-57
2022/10/17 09:33:17;;;;;;;19.60;9.90;;;;;;;19.13;51.28;96003.84;1701415;81;21044;-54
2022/10/17 09:35:45;;;;;;;14.33;8.55;;;;;;;19.59;50.45;95996.77;1707400;82;21517;-58
2022/10/17 09:38:18;;;;;;;17.37;8.13;;;;;;;20.11;49.37;95996.09;1706937;82;21030;-60
2022/10/17 09:40:59;;;;;;;12.88;9.23;;;;;;;20.65;47.64;95997.75;1709457;82;21196;-59
2022/10/17 09:43:27;;;;;;;17.45;8.08;;;;;;;21.18;46.21;95989.23;1714261;82;21498;-57
2022/10/17 09:46:14;;;;;;;15.63;9.73;;;;;;;21.68;45.09;95983.74;1668461;84;21105;-55
2022/10/17 09:48:50;;;;;;;23.83;8.50;;;;;;;22.22;44.25;95984.41;1649074;85;21295;-55
2022/10/17 09:51:17;;;;;;;13.03;6.87;;;;;;;22.93;43.68;95982.98;1660523;84;21110;-58
2022/10/17 09:53:56;;;;;;;12.20;6.15;;;;;;;23.55;43.03;95980.77;1687526;83;20939;-58
2022/10/17 09:56:23;;;;;;;21.97;8.78;;;;;;;23.98;41.94;95987.27;1682492;84;21086;-58
2022/10/17 09:58:53;;;;;;;18.90;7.12;;;;;;;24.37;41.45;95981.16;1640144;84;21064;-55
2022/10/17 10:01:29;;;;;;;12.35;5.97;;;;;;;24.87;39.71;95980.61;1655219;85;22267;-56
2022/10/17 10:04:15;;;;;;;9.78;5.67;;;;;;;25.35;39.54;95972.70;1666746;84;21647;-58
2022/10/17 10:07:05;;;;;;;14.07;7.22;;;;;;;25.90;38.65;95976.21;1717525;83;21102;-56
2022/10/17 10:09:33;;;;;;;13.03;9.73;;;;;;;26.44;37.25;95970.17;1707882;83;21121;-57
2022/10/17 10:12:05;;;;;;;22.52;7.95;;;;;;;26.95;35.33;95971.55;1673285;84;21694;-55
2022/10/17 10:14:36;;;;;;;10.15;4.75;;;;;;;27.36;35.30;95968.67;1718949;82;21055;-55
2022/10/17 10:17:07;;;;;;;7.47;4.53;;;;;;;27.86;34.31;95966.89;1716570;83;21036;-57
2022/10/17 10:19:37;;;;;;;12.63;4.67;;;;;;;28.25;33.95;95965.11;1698274;82;21100;-57
2022/10/17 10:22:18;;;;;;;6.45;4.53;;;;;;;28.62;33.47;95967.23;1708337;82;21035;-56
2022/10/17 10:24:45;;;;;;;24.00;5.75;;;;;;;29.10;32.66;95967.80;1714674;82;21070;-55
2022/10/17 10:27:17;;;;;;;6.08;3.92;;;;;;;29.53;32.03;95963.38;1731320;81;21001;-55
2022/10/17 10:29:51;;;;;;;11.25;4.80;;;;;;;29.76;32.16;95961.66;1700680;82;21023;-54
2022/10/17 10:32:25;;;;;;;5.65;3.77;;;;;;;29.99;31.58;95964.27;1714622;83;21091;-55
2022/10/17 10:35:19;;;;;;;7.30;3.80;;;;;;;30.34;30.24;95961.01;1719248;82;21022;-56
2022/10/17 10:37:53;;;;;;;14.03;4.65;;;;;;;30.65;29.51;95958.69;1704514;82;21198;-59
2022/10/17 10:40:30;;;;;;;14.73;5.30;;;;;;;30.97;29.63;95959.25;1662422;86;21976;-55
2022/10/17 10:42:58;;;;;;;23.75;5.42;;;;;;;31.28;29.21;95957.48;1644766;86;21205;-57
2022/10/17 10:45:39;;;;;;;19.75;7.78;;;;;;;31.64;28.82;95961.22;1663781;84;21068;-57
2022/10/17 10:48:23;;;;;;;9.25;5.40;;;;;;;31.98;28.49;95956.94;1717807;82;21114;-56
2022/10/17 10:51:13;;;;;;;7.62;4.87;;;;;;;32.24;27.95;95956.76;1722189;83;21014;-54
2022/10/17 10:53:54;;;;;;;29.10;11.95;;;;;;;32.35;28.14;95950.72;1700306;83;22023;-57
2022/10/17 10:56:27;;;;;;;12.73;7.10;;;;;;;32.47;28.23;95947.00;1709599;83;21070;-56
2022/10/17 10:59:10;;;;;;;7.55;5.62;;;;;;;32.72;27.33;95945.87;1717508;83;21115;-57
2022/10/17 11:01:58;;;;;;;6.42;4.28;;;;;;;32.89;26.62;95944.69;1688699;83;22142;-57
2022/10/17 11:04:48;;;;;;;17.42;3.85;;;;;;;32.87;26.12;95943.08;1698818;83;22270;-57
2022/10/17 11:07:36;;;;;;;19.52;4.20;;;;;;;32.84;26.99;95941.36;1726630;81;21486;-56
2022/10/17 11:10:25;;;;;;;26.12;5.17;;;;;;;32.90;27.50;95940.52;1669231;83;21113;-57
2022/10/17 11:13:00;;;;;;;8.70;3.77;;;;;;;33.16;28.27;95940.20;1721182;82;21080;-57
2022/10/17 11:15:35;;;;;;;17.87;3.50;;;;;;;33.28;29.37;95939.30;1699972;82;21138;-60
2022/10/17 11:18:09;;;;;;;14.73;4.72;;;;;;;33.39;29.07;95942.44;1701594;83;20965;-57
2022/10/17 11:21:00;;;;;;;102.62;91.55;;;;;;;33.58;28.04;95937.89;1715777;82;21124;-55
2022/10/17 11:23:41;;;;;;;20.10;13.80;;;;;;;33.62;27.37;95933.98;1718181;82;21468;-57
2022/10/17 11:26:25;;;;;;;17.15;7.03;;;;;;;33.70;27.56;95936.88;1706046;82;21070;-59
2022/10/17 11:28:56;;;;;;;7.70;4.28;;;;;;;33.82;26.47;95932.27;1714392;81;21073;-54
2022/10/17 11:31:29;;;;;;;18.37;4.85;;;;;;;33.90;26.34;95941.61;1705531;82;21489;-57
2022/10/17 11:34:09;;;;;;;22.98;8.50;;;;;;;33.83;26.54;95936.00;1693949;82;21687;-55
2022/10/17 11:36:39;;;;;;;10.90;5.50;;;;;;;34.04;25.88;95933.02;1707842;82;21123;-56
2022/10/17 11:39:20;;;;;;;5.95;4.00;;;;;;;34.21;24.84;95928.91;1694830;82;21255;-56
2022/10/17 11:41:55;;;;;;;8.23;4.65;;;;;;;34.34;24.30;95928.66;1709889;82;21963;-57
2022/10/17 11:44:30;;;;;;;4.60;3.12;;;;;;;34.38;23.54;95923.34;1703303;82;22266;-56
2022/10/17 11:47:01;;;;;;;6.20;4.33;;;;;;;34.28;23.30;95930.20;1677508;84;21289;-57
2022/10/17 11:49:33;;;;;;;8.85;4.17;;;;;;;34.22;24.97;95925.38;1703796;83;21059;-56
2022/10/17 11:52:26;;;;;;;13.13;3.87;;;;;;;34.38;25.00;95934.77;1703824;82;21054;-56